createdAt,value
2019-03-08T00:00:25.149Z,9.2
2019-03-08T00:01:34.492Z,9.1
2019-03-08T00:02:43.821Z,9.1
2019-03-08T00:03:53.156Z,9.1
2019-03-08T00:05:02.528Z,9.2
2019-03-08T00:06:11.837Z,9.2
2019-03-08T00:07:21.181Z,9.1
2019-03-08T00:08:30.525Z,9.2
2019-03-08T00:09:39.870Z,9.1
2019-03-08T00:10:49.205Z,9.1
2019-03-08T00:11:58.586Z,9
2019-03-08T00:13:07.891Z,9
2019-03-08T00:14:17.220Z,9
2019-03-08T00:15:26.534Z,9.1
2019-03-08T00:16:35.928Z,9.1
2019-03-08T00:17:45.221Z,9.1
2019-03-08T00:18:54.627Z,9.2
2019-03-08T00:20:03.881Z,9.1
2019-03-08T00:21:13.221Z,9
2019-03-08T00:22:22.572Z,9.1
2019-03-08T00:23:31.892Z,9
2019-03-08T00:24:41.294Z,9
2019-03-08T00:25:50.617Z,9
2019-03-08T00:26:59.888Z,9
2019-03-08T00:28:09.264Z,9
2019-03-08T00:29:18.804Z,9
2019-03-08T00:30:27.915Z,8.9
2019-03-08T00:31:37.238Z,9
2019-03-08T00:32:46.567Z,9.1
2019-03-08T00:33:55.911Z,9
2019-03-08T00:35:05.237Z,8.9
2019-03-08T00:36:14.574Z,8.9
2019-03-08T00:37:23.922Z,8.9
2019-03-08T00:38:33.286Z,9
2019-03-08T00:39:42.672Z,8.9
2019-03-08T00:40:51.889Z,8.9
2019-03-08T00:42:01.338Z,8.9
2019-03-08T00:43:10.549Z,8.9
2019-03-08T00:44:19.883Z,8.9
2019-03-08T00:45:29.211Z,8.9
2019-03-08T00:46:38.562Z,8.9
2019-03-08T00:47:47.926Z,8.9
2019-03-08T00:48:57.208Z,9
2019-03-08T00:50:06.585Z,8.9
2019-03-08T00:51:15.877Z,9
2019-03-08T00:52:25.353Z,8.9
2019-03-08T00:53:34.529Z,8.9
2019-03-08T00:54:43.857Z,8.8
2019-03-08T00:55:53.197Z,8.9
2019-03-08T00:57:02.583Z,8.9
2019-03-08T00:58:11.853Z,8.9
2019-03-08T00:59:21.245Z,8.8
2019-03-08T01:00:30.511Z,8.8
2019-03-08T01:01:39.836Z,8.8
2019-03-08T01:02:49.302Z,8.8
2019-03-08T01:03:58.500Z,8.7
2019-03-08T01:05:07.839Z,8.7
2019-03-08T01:06:17.165Z,8.7
2019-03-08T01:07:26.530Z,8.7
2019-03-08T01:08:35.815Z,8.7
2019-03-08T01:09:45.146Z,8.6
2019-03-08T01:10:54.465Z,8.7
2019-03-08T01:12:03.790Z,8.6
2019-03-08T01:13:13.129Z,8.6
2019-03-08T01:14:22.480Z,8.6
2019-03-08T01:15:31.821Z,8.6
2019-03-08T01:16:41.112Z,8.6
2019-03-08T01:17:50.424Z,8.6
2019-03-08T01:18:59.747Z,8.6
2019-03-08T01:20:09.207Z,8.5
2019-03-08T01:21:18.434Z,8.5
2019-03-08T01:22:27.720Z,8.5
2019-03-08T01:23:37.100Z,8.6
2019-03-08T01:24:46.431Z,8.6
2019-03-08T01:25:55.708Z,8.6
2019-03-08T01:27:05.037Z,8.6
2019-03-08T01:28:14.340Z,8.6
2019-03-08T01:29:23.687Z,8.6
2019-03-08T01:30:32.986Z,8.5
2019-03-08T01:31:42.397Z,8.6
2019-03-08T01:32:51.638Z,8.6
2019-03-08T01:34:00.961Z,8.6
2019-03-08T01:35:10.380Z,8.6
2019-03-08T01:36:19.600Z,8.5
2019-03-08T01:37:28.938Z,8.5
2019-03-08T01:38:38.305Z,8.5
2019-03-08T01:39:47.638Z,8.5
2019-03-08T01:40:56.890Z,8.6
2019-03-08T01:42:06.219Z,8.6
2019-03-08T01:43:15.535Z,8.7
2019-03-08T01:44:24.853Z,8.7
2019-03-08T01:45:34.205Z,8.6
2019-03-08T01:46:43.513Z,8.6
2019-03-08T01:47:52.869Z,8.6
2019-03-08T01:49:02.149Z,8.7
2019-03-08T01:50:11.472Z,8.7
2019-03-08T01:51:20.799Z,8.6
2019-03-08T01:52:30.115Z,8.7
2019-03-08T01:53:39.427Z,8.7
2019-03-08T01:54:48.840Z,8.7
2019-03-08T01:55:58.077Z,8.7
2019-03-08T01:57:07.421Z,8.6
2019-03-08T01:58:16.728Z,8.6
2019-03-08T01:59:26.041Z,8.7
2019-03-08T02:00:35.402Z,8.7
2019-03-08T02:01:44.829Z,8.6
2019-03-08T02:02:54.065Z,8.6
2019-03-08T02:04:03.395Z,8.6
2019-03-08T02:05:12.682Z,8.5
2019-03-08T02:06:21.996Z,8.6
2019-03-08T02:07:33.156Z,8.8
2019-03-08T02:08:40.650Z,8.6
2019-03-08T02:09:49.955Z,8.6
2019-03-08T02:10:59.284Z,8.6
2019-03-08T02:12:08.608Z,8.5
2019-03-08T02:13:17.937Z,8.5
2019-03-08T02:14:27.244Z,8.6
2019-03-08T02:15:36.593Z,8.6
2019-03-08T02:16:45.910Z,8.7
2019-03-08T02:17:55.315Z,8.6
2019-03-08T02:19:04.532Z,8.5
2019-03-08T02:20:13.866Z,8.6
2019-03-08T02:21:23.292Z,8.6
2019-03-08T02:22:32.553Z,8.6
2019-03-08T02:23:41.825Z,8.5
2019-03-08T02:24:51.147Z,8.5
2019-03-08T02:26:00.480Z,8.6
2019-03-08T02:27:09.820Z,8.6
2019-03-08T02:28:19.211Z,8.6
2019-03-08T02:29:28.548Z,8.6
2019-03-08T02:30:37.763Z,8.6
2019-03-08T02:31:47.237Z,8.5
2019-03-08T02:32:56.452Z,8.6
2019-03-08T02:34:05.735Z,8.5
2019-03-08T02:35:15.069Z,8.5
2019-03-08T02:36:24.381Z,8.6
2019-03-08T02:37:33.680Z,8.6
2019-03-08T02:38:42.998Z,8.5
2019-03-08T02:39:52.321Z,8.5
2019-03-08T02:49:07.044Z,8.6
2019-03-08T02:50:16.289Z,8.6
2019-03-08T02:51:25.530Z,8.6
2019-03-08T02:52:34.868Z,8.5
2019-03-08T02:53:44.163Z,8.5
2019-03-08T02:54:53.520Z,8.6
2019-03-08T02:56:02.832Z,8.6
2019-03-08T02:57:12.146Z,8.5
2019-03-08T02:58:21.485Z,8.6
2019-03-08T02:59:30.903Z,8.6
2019-03-08T03:00:40.099Z,8.6
2019-03-08T03:01:49.414Z,8.6
2019-03-08T03:02:58.724Z,8.5
2019-03-08T03:04:08.051Z,8.6
2019-03-08T03:05:17.427Z,8.6
2019-03-08T03:06:26.720Z,8.6
2019-03-08T03:07:36.053Z,8.6
2019-03-08T03:08:45.328Z,8.6
2019-03-08T03:09:54.642Z,8.6
2019-03-08T03:11:03.984Z,8.6
2019-03-08T03:12:13.330Z,8.7
2019-03-08T03:13:22.638Z,8.6
2019-03-08T03:14:31.940Z,8.6
2019-03-08T03:15:41.253Z,8.7
2019-03-08T03:16:50.584Z,8.6
2019-03-08T03:17:59.939Z,8.7
2019-03-08T03:19:09.219Z,8.7
2019-03-08T03:20:18.669Z,8.8
2019-03-08T03:21:27.873Z,8.8
2019-03-08T03:22:37.203Z,8.7
2019-03-08T03:23:46.517Z,8.8
2019-03-08T03:24:55.841Z,8.8
2019-03-08T03:26:05.168Z,8.8
2019-03-08T03:27:14.498Z,8.7
2019-03-08T03:28:23.838Z,8.8
2019-03-08T03:29:33.140Z,8.8
2019-03-08T03:30:42.603Z,8.8
2019-03-08T03:31:51.832Z,8.8
2019-03-08T03:33:01.208Z,8.9
2019-03-08T03:34:10.468Z,8.8
2019-03-08T03:35:19.793Z,8.8
2019-03-08T03:36:29.139Z,8.8
2019-03-08T03:37:38.430Z,8.7
2019-03-08T03:38:47.803Z,8.8
2019-03-08T03:39:57.088Z,8.8
2019-03-08T03:41:06.451Z,8.8
2019-03-08T03:42:15.845Z,8.7
2019-03-08T03:43:25.076Z,8.8
2019-03-08T03:44:34.506Z,8.8
2019-03-08T03:45:43.711Z,8.8
2019-03-08T03:46:53.037Z,8.7
2019-03-08T03:48:02.395Z,8.8
2019-03-08T03:49:11.701Z,8.7
2019-03-08T03:50:21.015Z,8.7
2019-03-08T03:51:30.409Z,8.8
2019-03-08T03:52:39.684Z,8.8
2019-03-08T03:53:48.999Z,8.7
2019-03-08T03:54:58.358Z,8.6
2019-03-08T03:56:07.649Z,8.7
2019-03-08T03:57:16.980Z,8.7
2019-03-08T03:58:26.322Z,8.8
2019-03-08T03:59:35.629Z,8.9
2019-03-08T04:00:44.989Z,8.9
2019-03-08T04:01:54.314Z,9
2019-03-08T04:03:03.620Z,8.9
2019-03-08T04:04:13.039Z,8.9
2019-03-08T04:05:22.296Z,8.9
2019-03-08T04:06:31.614Z,8.9
2019-03-08T04:07:40.952Z,8.9
2019-03-08T04:08:50.255Z,8.9
2019-03-08T04:09:59.587Z,8.9
2019-03-08T04:11:09.021Z,8.9
2019-03-08T04:12:18.279Z,9
2019-03-08T04:13:27.666Z,8.9
2019-03-08T04:14:36.977Z,9
2019-03-08T04:15:46.295Z,9
2019-03-08T04:16:55.573Z,8.9
2019-03-08T04:18:04.899Z,8.9
2019-03-08T04:19:14.227Z,8.9
2019-03-08T04:20:23.563Z,9
2019-03-08T04:21:32.962Z,8.9
2019-03-08T04:22:42.285Z,8.9
2019-03-08T04:23:51.572Z,9
2019-03-08T04:25:00.891Z,9
2019-03-08T04:26:10.226Z,9
2019-03-08T04:27:19.544Z,9
2019-03-08T04:28:30.449Z,9
2019-03-08T04:29:39.760Z,9
2019-03-08T04:30:49.105Z,9
2019-03-08T04:31:58.433Z,9.1
2019-03-08T04:33:07.771Z,9.1
2019-03-08T04:34:17.199Z,9.2
2019-03-08T04:35:26.427Z,9.1
2019-03-08T04:36:35.760Z,9.1
2019-03-08T04:37:45.102Z,9.2
2019-03-08T04:38:54.441Z,9.2
2019-03-08T04:40:03.775Z,9.1
2019-03-08T04:41:13.109Z,9.2
2019-03-08T04:42:22.444Z,9.3
2019-03-08T04:43:31.788Z,9.3
2019-03-08T04:44:41.235Z,9.2
2019-03-08T04:45:50.460Z,9.3
2019-03-08T04:46:59.807Z,9.3
2019-03-08T04:48:09.258Z,9.3
2019-03-08T04:49:18.488Z,9.3
2019-03-08T04:50:27.878Z,9.3
2019-03-08T04:51:37.325Z,9.3
2019-03-08T04:52:46.555Z,9.3
2019-03-08T04:53:55.864Z,9.3
2019-03-08T04:55:05.171Z,9.4
2019-03-08T04:56:14.509Z,9.4
2019-03-08T04:57:23.904Z,9.3
2019-03-08T04:58:33.238Z,9.3
2019-03-08T04:59:42.538Z,9.4
2019-03-08T05:00:51.871Z,9.3
2019-03-08T05:02:01.274Z,9.3
2019-03-08T05:03:10.551Z,9.3
2019-03-08T05:04:19.933Z,9.3
2019-03-08T05:05:29.235Z,9.3
2019-03-08T05:06:38.704Z,9.3
2019-03-08T05:07:48.027Z,9.3
2019-03-08T05:08:57.288Z,9.3
2019-03-08T05:10:06.615Z,9.3
2019-03-08T05:11:15.953Z,9.3
2019-03-08T05:12:25.281Z,9.3
2019-03-08T05:13:34.636Z,9.3
2019-03-08T05:14:43.975Z,9.3
2019-03-08T05:15:53.312Z,9.3
2019-03-08T05:17:02.659Z,9.3
2019-03-08T05:18:12.013Z,9.3
2019-03-08T05:19:21.368Z,9.4
2019-03-08T05:20:30.714Z,9.3
2019-03-08T05:21:40.074Z,9.3
2019-03-08T05:22:49.363Z,9.4
2019-03-08T05:23:58.751Z,9.4
2019-03-08T05:25:08.063Z,9.3
2019-03-08T05:26:17.426Z,9.3
2019-03-08T05:27:26.743Z,9.3
2019-03-08T05:28:36.144Z,9.3
2019-03-08T05:29:45.439Z,9.3
2019-03-08T05:30:54.798Z,9.3
2019-03-08T05:32:04.115Z,9.3
2019-03-08T05:33:13.460Z,9.4
2019-03-08T05:34:22.806Z,9.4
2019-03-08T05:35:32.266Z,9.3
2019-03-08T05:36:41.768Z,9.4
2019-03-08T05:37:50.876Z,9.4
2019-03-08T05:39:00.202Z,9.3
2019-03-08T05:40:09.528Z,9.4
2019-03-08T05:41:18.862Z,9.4
2019-03-08T05:42:28.206Z,9.4
2019-03-08T05:43:37.574Z,9.3
2019-03-08T05:44:46.891Z,9.4
2019-03-08T05:45:56.334Z,9.4
2019-03-08T05:47:05.586Z,9.4
2019-03-08T05:48:14.932Z,9.4
2019-03-08T05:49:24.327Z,9.4
2019-03-08T05:50:33.612Z,9.4
2019-03-08T05:51:43.038Z,9.4
2019-03-08T05:52:52.297Z,9.4
2019-03-08T05:54:01.649Z,9.4
2019-03-08T05:55:11.001Z,9.4
2019-03-08T05:56:20.333Z,9.5
2019-03-08T05:57:29.678Z,9.4
2019-03-08T05:58:39.027Z,9.4
2019-03-08T05:59:48.371Z,9.4
2019-03-08T06:00:57.727Z,9.4
2019-03-08T06:02:07.062Z,9.4
2019-03-08T06:03:16.524Z,9.4
2019-03-08T06:04:25.768Z,9.4
2019-03-08T06:05:35.162Z,9.5
2019-03-08T06:06:44.458Z,9.5
2019-03-08T06:07:53.805Z,9.5
2019-03-08T06:09:03.167Z,9.5
2019-03-08T06:10:12.513Z,9.4
2019-03-08T06:11:21.858Z,9.5
2019-03-08T06:12:31.297Z,9.5
2019-03-08T06:13:40.559Z,9.5
2019-03-08T06:14:50.021Z,9.5
2019-03-08T06:15:59.247Z,9.5
2019-03-08T06:17:08.596Z,9.5
2019-03-08T06:18:17.946Z,9.5
2019-03-08T06:19:27.322Z,9.5
2019-03-08T06:20:36.652Z,9.5
2019-03-08T06:21:46.038Z,9.5
2019-03-08T06:22:55.353Z,9.5
2019-03-08T06:24:04.698Z,9.5
2019-03-08T06:25:14.057Z,9.5
2019-03-08T06:26:23.429Z,9.5
2019-03-08T06:27:32.951Z,9.5
2019-03-08T06:28:42.268Z,9.5
2019-03-08T06:29:51.460Z,9.5
2019-03-08T06:31:00.801Z,9.5
2019-03-08T06:32:10.214Z,9.5
2019-03-08T06:33:19.511Z,9.5
2019-03-08T06:34:28.864Z,9.5
2019-03-08T06:35:38.207Z,9.5
2019-03-08T06:36:47.653Z,9.5
2019-03-08T06:37:56.912Z,9.5
2019-03-08T06:39:06.276Z,9.5
2019-03-08T06:40:15.635Z,9.5
2019-03-08T06:41:25.031Z,9.5
2019-03-08T06:42:34.329Z,9.5
2019-03-08T06:43:44.033Z,9.5
2019-03-08T06:44:53.054Z,9.5
2019-03-08T06:46:02.490Z,9.5
2019-03-08T06:47:11.761Z,9.4
2019-03-08T06:48:21.093Z,9.5
2019-03-08T06:49:30.423Z,9.4
2019-03-08T06:50:39.783Z,9.4
2019-03-08T06:51:49.124Z,9.4
2019-03-08T06:52:58.482Z,9.4
2019-03-08T06:54:07.916Z,9.4
2019-03-08T06:55:17.174Z,9.4
2019-03-08T06:56:26.573Z,9.4
2019-03-08T06:57:35.976Z,9.3
2019-03-08T06:58:45.216Z,9.3
2019-03-08T06:59:54.616Z,9.3
2019-03-08T07:01:03.925Z,9.3
2019-03-08T07:02:13.273Z,9.4
2019-03-08T07:03:22.617Z,9.5
2019-03-08T07:04:31.993Z,9.5
2019-03-08T07:05:41.461Z,9.5
2019-03-08T07:06:50.674Z,9.5
2019-03-08T07:08:00.095Z,9.5
2019-03-08T07:09:09.424Z,9.5
2019-03-08T07:10:18.719Z,9.6
2019-03-08T07:11:28.124Z,9.6
2019-03-08T07:12:37.436Z,9.6
2019-03-08T07:13:46.792Z,9.6
2019-03-08T07:14:56.151Z,9.6
2019-03-08T07:16:12.627Z,9.6
2019-03-08T07:17:14.845Z,9.6
2019-03-08T07:18:24.218Z,9.6
2019-03-08T07:19:40.475Z,9.6
2019-03-08T07:20:42.907Z,9.7
2019-03-08T07:21:52.259Z,9.6
2019-03-08T07:23:01.625Z,9.7
2019-03-08T07:24:10.988Z,9.7
2019-03-08T07:25:20.333Z,9.7
2019-03-08T07:26:29.691Z,9.7
2019-03-08T07:27:39.059Z,9.7
2019-03-08T07:28:48.408Z,9.7
2019-03-08T07:29:57.842Z,9.7
2019-03-08T07:31:07.129Z,9.7
2019-03-08T07:32:17.587Z,9.7
2019-03-08T07:33:25.860Z,9.7
2019-03-08T07:34:35.252Z,9.8
2019-03-08T07:35:45.896Z,9.7
2019-03-08T07:36:55.406Z,9.7
2019-03-08T07:38:04.583Z,9.7
2019-03-08T07:39:13.954Z,9.7
2019-03-08T07:40:23.349Z,9.7
2019-03-08T07:41:32.679Z,9.7
2019-03-08T07:42:42.055Z,9.7
2019-03-08T07:43:51.441Z,9.7
2019-03-08T07:45:00.799Z,9.7
2019-03-08T07:46:10.125Z,9.6
2019-03-08T07:47:19.480Z,9.6
2019-03-08T07:48:28.848Z,9.7
2019-03-08T07:49:38.220Z,9.6
2019-03-08T07:50:47.599Z,9.6
2019-03-08T07:51:56.947Z,9.6
2019-03-08T07:53:06.331Z,9.6
2019-03-08T07:54:15.659Z,9.6
2019-03-08T07:55:25.014Z,9.6
2019-03-08T07:56:34.439Z,9.6
2019-03-08T07:57:43.777Z,9.6
2019-03-08T07:58:53.119Z,9.6
2019-03-08T08:00:02.538Z,9.6
2019-03-08T08:01:11.853Z,9.7
2019-03-08T08:02:21.207Z,9.7
2019-03-08T08:03:30.587Z,9.7
2019-03-08T08:04:39.982Z,9.7
2019-03-08T08:05:57.499Z,9.7
2019-03-08T08:06:58.670Z,9.7
2019-03-08T08:08:08.043Z,9.7
2019-03-08T08:09:17.431Z,9.7
2019-03-08T08:10:26.787Z,9.7
2019-03-08T08:11:36.146Z,9.7
2019-03-08T08:12:45.546Z,9.7
2019-03-08T08:13:54.857Z,9.8
2019-03-08T08:15:04.221Z,9.8
2019-03-08T08:16:13.627Z,9.8
2019-03-08T08:17:22.967Z,9.8
2019-03-08T08:18:32.434Z,9.8
2019-03-08T08:19:41.715Z,9.8
2019-03-08T08:20:51.069Z,9.8
2019-03-08T08:22:00.465Z,9.8
2019-03-08T08:23:09.866Z,9.9
2019-03-08T08:24:19.195Z,9.8
2019-03-08T08:25:36.486Z,9.8
2019-03-08T08:26:38.020Z,9.8
2019-03-08T08:27:47.387Z,9.9
2019-03-08T08:28:56.708Z,9.8
2019-03-08T08:30:06.143Z,9.9
2019-03-08T08:31:15.460Z,9.9
2019-03-08T08:32:24.839Z,9.9
2019-03-08T08:33:34.281Z,9.8
2019-03-08T08:34:43.613Z,9.8
2019-03-08T08:35:52.975Z,9.8
2019-03-08T08:39:05.561Z,9.7
2019-03-08T08:40:30.475Z,9.8
2019-03-08T08:41:39.846Z,9.7
2019-03-08T08:42:49.225Z,9.7
2019-03-08T08:43:58.590Z,9.7
2019-03-08T08:45:07.977Z,9.7
2019-03-08T08:46:17.405Z,9.6
2019-03-08T08:47:26.727Z,9.6
2019-03-08T08:48:36.105Z,9.6
2019-03-08T08:49:54.211Z,9.7
2019-03-08T08:50:54.838Z,9.7
2019-03-08T08:52:04.206Z,9.7
2019-03-08T08:53:13.565Z,9.6
2019-03-08T08:54:22.924Z,9.6
2019-03-08T08:55:32.328Z,9.6
2019-03-08T08:56:41.652Z,9.6
2019-03-08T08:57:51.063Z,9.6
2019-03-08T08:59:00.395Z,9.6
2019-03-08T09:00:09.756Z,9.6
2019-03-08T09:01:19.135Z,9.6
2019-03-08T09:02:28.495Z,9.6
2019-03-08T09:03:37.913Z,9.6
2019-03-08T09:04:47.244Z,9.7
2019-03-08T09:05:56.623Z,9.7
2019-03-08T09:07:05.991Z,9.7
2019-03-08T09:08:15.374Z,9.7
2019-03-08T09:09:24.700Z,9.8
2019-03-08T09:10:34.307Z,9.7
2019-03-08T09:11:47.045Z,9.8
2019-03-08T09:12:52.815Z,9.9
2019-03-08T09:14:02.309Z,9.8
2019-03-08T09:15:11.644Z,9.8
2019-03-08T09:16:20.950Z,9.7
2019-03-08T09:17:30.334Z,9.8
2019-03-08T09:18:39.707Z,9.9
2019-03-08T09:19:49.114Z,9.9
2019-03-08T09:20:58.488Z,9.9
2019-03-08T09:22:07.856Z,9.8
2019-03-08T09:23:17.346Z,9.8
2019-03-08T09:24:26.603Z,9.7
2019-03-08T09:25:36.130Z,9.7
2019-03-08T09:26:45.432Z,9.6
2019-03-08T09:27:54.767Z,9.6
2019-03-08T09:29:04.103Z,9.5
2019-03-08T09:30:13.507Z,9.3
2019-03-08T09:31:24.399Z,9.2
2019-03-08T09:32:32.414Z,9.1
2019-03-08T09:33:41.784Z,9.1
2019-03-08T09:34:51.043Z,9
2019-03-08T09:36:00.367Z,9
2019-03-08T09:37:09.711Z,9
2019-03-08T09:38:19.139Z,8.9
2019-03-08T09:39:28.420Z,8.8
2019-03-08T09:40:37.821Z,8.8
2019-03-08T09:41:47.155Z,8.9
2019-03-08T09:42:56.509Z,8.8
2019-03-08T09:44:05.858Z,8.9
2019-03-08T09:45:15.258Z,9
2019-03-08T09:46:24.606Z,9
2019-03-08T09:47:33.933Z,9.1
2019-03-08T09:48:48.428Z,9.1
2019-03-08T09:49:52.650Z,9
2019-03-08T09:51:02.049Z,8.9
2019-03-08T09:52:11.397Z,8.8
2019-03-08T09:53:20.796Z,8.9
2019-03-08T09:54:30.069Z,8.7
2019-03-08T09:55:39.432Z,8.7
2019-03-08T09:56:48.770Z,8.7
2019-03-08T09:57:58.151Z,8.6
2019-03-08T09:59:07.510Z,8.7
2019-03-08T10:00:16.833Z,8.5
2019-03-08T10:01:26.194Z,8.6
2019-03-08T10:02:35.544Z,8.5
2019-03-08T10:03:46.350Z,8.4
2019-03-08T10:04:54.337Z,8.3
2019-03-08T10:06:03.583Z,8.3
2019-03-08T10:07:12.923Z,8.2
2019-03-08T10:08:22.262Z,8.2
2019-03-08T10:09:31.678Z,8.3
2019-03-08T10:10:40.976Z,8.2
2019-03-08T10:11:50.306Z,8.3
2019-03-08T10:12:59.650Z,8.2
2019-03-08T10:14:09.033Z,8.3
2019-03-08T10:15:18.289Z,8.2
2019-03-08T10:16:27.634Z,8.3
2019-03-08T10:17:36.981Z,8.3
2019-03-08T10:18:46.380Z,8.3
2019-03-08T10:19:55.706Z,8.4
2019-03-08T10:21:04.980Z,8.5
2019-03-08T10:22:14.311Z,8.5
2019-03-08T10:23:23.644Z,8.5
2019-03-08T10:24:33.001Z,8.6
2019-03-08T10:25:42.400Z,8.6
2019-03-08T10:26:51.672Z,8.7
2019-03-08T10:28:00.999Z,8.7
2019-03-08T10:29:10.346Z,8.7
2019-03-08T10:30:19.680Z,8.8
2019-03-08T10:31:29.019Z,8.9
2019-03-08T10:32:38.373Z,8.9
2019-03-08T10:33:47.710Z,9
2019-03-08T10:34:57.518Z,9.1
2019-03-08T10:36:06.641Z,9.2
2019-03-08T10:37:15.797Z,9.3
2019-03-08T10:38:25.205Z,9.4
2019-03-08T10:39:34.976Z,9.5
2019-03-08T10:40:43.833Z,9.4
2019-03-08T10:41:53.201Z,9.5
2019-03-08T10:43:02.732Z,9.4
2019-03-08T10:44:12.469Z,9.3
2019-03-08T10:45:21.321Z,9.4
2019-03-08T10:46:30.660Z,9.5
2019-03-08T10:47:40.009Z,9.6
2019-03-08T10:48:49.408Z,9.6
2019-03-08T10:49:58.738Z,9.6
2019-03-08T10:51:08.116Z,9.6
2019-03-08T10:52:18.151Z,9.7
2019-03-08T10:53:26.865Z,9.8
2019-03-08T10:54:36.308Z,9.7
2019-03-08T10:55:45.619Z,9
2019-03-08T10:56:55.003Z,8.9
2019-03-08T10:58:04.420Z,9.1
2019-03-08T10:59:13.732Z,9.2
2019-03-08T11:00:23.301Z,8.9
2019-03-08T11:01:32.594Z,8.7
2019-03-08T11:02:41.839Z,8.3
2019-03-08T11:03:51.515Z,8.1
2019-03-08T11:05:00.585Z,7.9
2019-03-08T11:06:09.909Z,7.8
2019-03-08T11:07:19.273Z,7.7
2019-03-08T11:08:29.880Z,7.8
2019-03-08T11:09:38.090Z,7.9
2019-03-08T11:10:48.449Z,7.9
2019-03-08T11:11:56.664Z,7.9
2019-03-08T11:13:06.006Z,7.9
2019-03-08T11:14:15.348Z,7.9
2019-03-08T11:15:24.962Z,7.9
2019-03-08T11:16:34.045Z,7.9
2019-03-08T11:17:50.449Z,7.9
2019-03-08T11:18:52.795Z,7.8
2019-03-08T11:20:02.035Z,7.8
2019-03-08T11:21:11.358Z,7.8
2019-03-08T11:22:20.692Z,7.8
2019-03-08T11:23:30.132Z,7.8
2019-03-08T11:24:39.412Z,7.7
2019-03-08T11:27:04.660Z,7.7
2019-03-08T11:28:07.347Z,7.7
2019-03-08T11:29:16.760Z,7.8
2019-03-08T11:30:26.003Z,7.7
2019-03-08T11:31:35.358Z,7.8
2019-03-08T11:32:46.269Z,7.8
2019-03-08T11:33:53.988Z,7.8
2019-03-08T11:35:03.327Z,7.8
2019-03-08T11:36:12.633Z,7.9
2019-03-08T11:37:22.186Z,8
2019-03-08T11:38:31.367Z,8.1
2019-03-08T11:39:40.646Z,8.1
2019-03-08T11:40:49.946Z,8.1
2019-03-08T11:41:59.325Z,8.1
2019-03-08T11:43:08.713Z,8
2019-03-08T11:44:17.943Z,8.1
2019-03-08T11:45:27.361Z,8.2
2019-03-08T11:46:36.625Z,8.2
2019-03-08T11:47:45.963Z,8.3
2019-03-08T11:48:55.296Z,8.5
2019-03-08T11:50:04.656Z,8.5
2019-03-08T11:51:13.974Z,8.6
2019-03-08T11:52:23.319Z,8.7
2019-03-08T11:53:32.806Z,8.9
2019-03-08T11:54:42.151Z,9.5
2019-03-08T11:55:51.380Z,9.7
2019-03-08T11:57:01.917Z,10
2019-03-08T11:58:10.095Z,10.1
2019-03-08T11:59:19.459Z,10.4
2019-03-08T12:00:28.837Z,10.2
2019-03-08T12:01:38.200Z,10.4
2019-03-08T12:02:47.600Z,10.9
2019-03-08T12:03:56.991Z,11.4
2019-03-08T12:05:06.366Z,11.2
2019-03-08T12:06:15.815Z,11.1
2019-03-08T12:07:25.209Z,11.6
2019-03-08T12:08:34.581Z,11.8
2019-03-08T12:09:44.443Z,12
2019-03-08T12:10:53.416Z,11.3
2019-03-08T12:12:02.857Z,11.6
2019-03-08T12:13:12.404Z,11.7
2019-03-08T12:14:21.809Z,11.3
2019-03-08T12:15:31.244Z,11.6
2019-03-08T12:16:40.639Z,11.5
2019-03-08T12:17:50.054Z,11.1
2019-03-08T12:18:59.500Z,11.3
2019-03-08T12:20:08.943Z,11.7
2019-03-08T12:21:18.433Z,12.1
2019-03-08T12:22:27.948Z,12.1
2019-03-08T12:23:37.314Z,11.5
2019-03-08T12:24:46.768Z,11.2
2019-03-08T12:25:56.250Z,11.4
2019-03-08T12:27:05.692Z,11.6
2019-03-08T12:28:15.155Z,11.4
2019-03-08T12:29:24.626Z,11.1
2019-03-08T12:30:34.121Z,11.3
2019-03-08T12:31:43.566Z,11.4
2019-03-08T12:32:53.032Z,11.5
2019-03-08T12:34:02.586Z,11.3
2019-03-08T12:35:11.953Z,11.4
2019-03-08T12:36:21.439Z,11.3
2019-03-08T12:37:30.865Z,11.2
2019-03-08T12:38:40.355Z,10.7
2019-03-08T12:39:49.769Z,10.4
2019-03-08T12:40:59.231Z,10.2
2019-03-08T12:42:08.655Z,10.3
2019-03-08T12:43:18.130Z,10
2019-03-08T12:44:27.611Z,9.9
2019-03-08T12:45:36.964Z,9.7
2019-03-08T12:46:46.418Z,9.6
2019-03-08T12:47:55.983Z,9.6
2019-03-08T12:49:05.538Z,10.1
2019-03-08T12:50:14.709Z,10.4
2019-03-08T12:51:24.194Z,10.7
2019-03-08T12:52:33.674Z,10.7
2019-03-08T12:53:43.130Z,10.5
2019-03-08T12:54:52.528Z,10.3
2019-03-08T12:56:01.952Z,10.2
2019-03-08T12:57:11.372Z,10.6
2019-03-08T12:58:20.830Z,10.9
2019-03-08T12:59:30.279Z,11.2
2019-03-08T13:00:39.758Z,11.2
2019-03-08T13:01:49.217Z,11.5
2019-03-08T13:02:58.672Z,11.9
2019-03-08T13:04:08.161Z,11.9
2019-03-08T13:05:17.663Z,11.9
2019-03-08T13:06:27.118Z,12.4
2019-03-08T13:07:36.634Z,12.1
2019-03-08T13:08:46.174Z,11.7
2019-03-08T13:09:55.639Z,11.9
2019-03-08T13:11:05.195Z,12.6
2019-03-08T13:12:14.685Z,12.7
2019-03-08T13:13:24.162Z,11.9
2019-03-08T13:14:33.681Z,12.1
2019-03-08T13:15:43.198Z,12.3
2019-03-08T13:16:52.714Z,12.3
2019-03-08T13:18:02.292Z,12.2
2019-03-08T13:19:11.870Z,12
2019-03-08T13:20:21.286Z,11.3
2019-03-08T13:21:30.806Z,10.8
2019-03-08T13:22:40.391Z,11.2
2019-03-08T13:23:49.878Z,11.2
2019-03-08T13:24:59.379Z,11.1
2019-03-08T13:26:08.813Z,10.9
2019-03-08T13:27:18.512Z,11.2
2019-03-08T13:28:27.838Z,11.5
2019-03-08T13:29:37.309Z,11.2
2019-03-08T13:30:46.834Z,11.2
2019-03-08T13:31:56.371Z,11.8
2019-03-08T13:33:05.878Z,12.1
2019-03-08T13:34:15.463Z,11.8
2019-03-08T13:35:24.965Z,12.1
2019-03-08T13:36:34.596Z,12
2019-03-08T13:37:44.062Z,12
2019-03-08T13:38:53.550Z,11.8
2019-03-08T13:40:03.121Z,11.9
2019-03-08T13:41:12.668Z,11.9
2019-03-08T13:42:22.330Z,11.9
2019-03-08T13:43:31.788Z,12.2
2019-03-08T13:44:41.486Z,12.2
2019-03-08T13:45:51.044Z,12
2019-03-08T13:47:00.507Z,12.6
2019-03-08T13:48:10.089Z,12.1
2019-03-08T13:49:20.119Z,12.3
2019-03-08T13:50:29.272Z,12.4
2019-03-08T13:51:38.835Z,12.1
2019-03-08T13:52:48.427Z,12.4
2019-03-08T13:53:58.039Z,11.7
2019-03-08T13:55:09.675Z,12.4
2019-03-08T13:56:17.187Z,12.4
2019-03-08T13:57:26.833Z,12.4
2019-03-08T13:58:36.434Z,12.2
2019-03-08T13:59:45.949Z,12.3
2019-03-08T14:00:55.543Z,12.2
2019-03-08T14:02:05.114Z,11.9
2019-03-08T14:03:14.711Z,11.8
2019-03-08T14:04:24.319Z,11.6
2019-03-08T14:05:33.886Z,11.8
2019-03-08T14:06:43.673Z,12.2
2019-03-08T14:07:53.054Z,12.3
2019-03-08T14:09:02.673Z,12.2
2019-03-08T14:10:12.219Z,12.1
2019-03-08T14:11:21.763Z,11.7
2019-03-08T14:12:31.388Z,11.5
2019-03-08T14:13:40.839Z,11.4
2019-03-08T14:14:50.379Z,11.2
2019-03-08T14:15:59.877Z,11
2019-03-08T14:17:09.404Z,11.2
2019-03-08T14:18:18.886Z,11.1
2019-03-08T14:19:28.345Z,11.2
2019-03-08T14:20:37.834Z,11.2
2019-03-08T14:21:47.424Z,11
2019-03-08T14:22:56.801Z,11.1
2019-03-08T14:24:06.318Z,11.4
2019-03-08T14:25:15.825Z,11.1
2019-03-08T14:26:25.305Z,11.6
2019-03-08T14:27:34.817Z,11.7
2019-03-08T14:28:44.295Z,12
2019-03-08T14:29:55.077Z,12.1
2019-03-08T14:31:03.462Z,11.7
2019-03-08T14:32:12.851Z,11.6
2019-03-08T14:33:22.383Z,11.5
2019-03-08T14:34:33.019Z,11.9
2019-03-08T14:35:42.576Z,12.3
2019-03-08T14:36:52.144Z,11.8
2019-03-08T14:38:01.637Z,12.2
2019-03-08T14:39:11.135Z,12.3
2019-03-08T14:40:21.977Z,12.3
2019-03-08T14:41:31.631Z,12.3
2019-03-08T14:42:40.305Z,12.2
2019-03-08T14:43:52.406Z,12.6
2019-03-08T14:44:58.745Z,12.3
2019-03-08T14:46:08.282Z,12
2019-03-08T14:47:17.846Z,11.7
2019-03-08T14:48:27.315Z,11.7
2019-03-08T14:49:36.968Z,11.9
2019-03-08T14:50:46.471Z,11.6
2019-03-08T14:51:55.887Z,11.5
2019-03-08T14:53:05.401Z,11.5
2019-03-08T14:54:14.920Z,11.6
2019-03-08T14:55:24.447Z,11.8
2019-03-08T14:56:35.787Z,11.5
2019-03-08T14:57:43.486Z,11.6
2019-03-08T14:58:52.961Z,11.4
2019-03-08T15:00:02.521Z,11.4
2019-03-08T15:01:12.016Z,11.2
2019-03-08T15:02:21.548Z,11.4
2019-03-08T15:03:30.952Z,11.4
2019-03-08T15:04:40.533Z,11.5
2019-03-08T15:05:51.103Z,11.6
2019-03-08T15:07:01.194Z,12
2019-03-08T15:08:08.922Z,11.7
2019-03-08T15:09:18.453Z,11.4
2019-03-08T15:10:27.935Z,11.7
2019-03-08T15:11:37.400Z,11.8
2019-03-08T15:12:48.785Z,11.7
2019-03-08T15:13:57.840Z,11.7
2019-03-08T15:15:07.233Z,11.4
2019-03-08T15:16:15.393Z,11.2
2019-03-08T15:17:24.842Z,10.9
2019-03-08T15:18:34.266Z,10.5
2019-03-08T15:19:43.741Z,10.5
2019-03-08T15:20:54.766Z,10.7
2019-03-08T15:22:02.954Z,10.8
2019-03-08T15:23:13.329Z,10.7
2019-03-08T15:24:21.536Z,10.7
2019-03-08T15:25:31.422Z,11
2019-03-08T15:26:40.428Z,10.8
2019-03-08T15:27:50.093Z,10.6
2019-03-08T15:28:59.378Z,10.7
2019-03-08T15:30:08.779Z,10.7
2019-03-08T15:31:18.423Z,10.7
2019-03-08T15:32:27.636Z,10.6
2019-03-08T15:33:37.109Z,10.6
2019-03-08T15:34:46.654Z,10.7
2019-03-08T15:35:55.940Z,10.8
2019-03-08T15:37:05.382Z,10.7
2019-03-08T15:38:14.786Z,10.5
2019-03-08T15:39:24.231Z,10.4
2019-03-08T15:40:33.662Z,10.4
2019-03-08T15:41:43.062Z,10.4
2019-03-08T15:42:52.481Z,10.6
2019-03-08T15:44:02.020Z,10.4
2019-03-08T15:45:11.320Z,10.5
2019-03-08T15:46:22.303Z,10.3
2019-03-08T15:47:32.453Z,10.3
2019-03-08T15:48:39.624Z,10.3
2019-03-08T15:49:48.941Z,10.4
2019-03-08T15:50:59.528Z,10.3
2019-03-08T15:52:07.790Z,10.6
2019-03-08T15:53:17.157Z,10.7
2019-03-08T15:54:26.563Z,10.7
2019-03-08T15:55:35.965Z,10.7
2019-03-08T15:56:45.417Z,10.4
2019-03-08T15:57:54.781Z,10.6
2019-03-08T15:59:04.152Z,10.5
2019-03-08T16:00:13.540Z,10.6
2019-03-08T16:01:22.942Z,10.4
2019-03-08T16:02:32.392Z,10.4